createdAt,value
2023-03-31T00:03:22.561Z,20.63
2023-03-31T00:08:30.894Z,20.38
2023-03-31T00:13:35.125Z,21.33
2023-03-31T00:18:47.892Z,20.48
2023-03-31T00:23:53.014Z,20.58
2023-03-31T00:28:57.959Z,19.27
2023-03-31T00:34:03.851Z,17.80
2023-03-31T00:39:09.050Z,19.00
2023-03-31T00:44:15.418Z,19.42
2023-03-31T00:49:27.411Z,17.52
2023-03-31T00:54:34.210Z,18.70
2023-03-31T00:59:42.340Z,18.95
2023-03-31T01:04:55.107Z,18.15
2023-03-31T01:10:03.572Z,20.40
2023-03-31T01:15:10.005Z,21.10
2023-03-31T01:20:26.085Z,18.50
2023-03-31T01:26:15.961Z,18.80
2023-03-31T01:31:40.153Z,19.42
2023-03-31T01:37:14.908Z,20.70
2023-03-31T01:42:25.562Z,21.17
2023-03-31T01:47:40.758Z,22.58
2023-03-31T01:52:51.329Z,22.58
2023-03-31T01:58:01.645Z,20.95
2023-03-31T02:03:09.970Z,22.92
2023-03-31T02:08:18.459Z,25.00
2023-03-31T02:13:27.096Z,26.20
2023-03-31T02:18:38.592Z,24.83
2023-03-31T02:23:43.988Z,24.52
2023-03-31T02:28:50.008Z,19.83
2023-03-31T02:33:54.851Z,21.75
2023-03-31T02:39:05.152Z,18.58
2023-03-31T02:44:11.306Z,18.17
2023-03-31T02:49:16.964Z,18.02
2023-03-31T02:54:54.319Z,16.85
2023-03-31T03:00:13.509Z,16.77
2023-03-31T03:05:31.499Z,17.08
2023-03-31T03:11:06.623Z,15.73
2023-03-31T03:16:21.944Z,18.52
2023-03-31T03:21:26.999Z,16.73
2023-03-31T03:26:35.561Z,17.02
2023-03-31T03:31:41.390Z,14.23
2023-03-31T03:36:45.810Z,14.90
2023-03-31T03:41:50.325Z,16.73
2023-03-31T03:46:56.225Z,15.38
2023-03-31T03:52:01.574Z,14.35
2023-03-31T03:57:06.186Z,14.15
2023-03-31T04:02:11.941Z,16.88
2023-03-31T04:07:16.088Z,16.67
2023-03-31T04:12:20.227Z,17.50
2023-03-31T04:17:33.124Z,17.20
2023-03-31T04:22:41.061Z,15.98
2023-03-31T04:27:47.095Z,16.85
2023-03-31T04:32:55.071Z,16.38
2023-03-31T04:38:02.799Z,17.48
2023-03-31T04:43:07.491Z,15.63
2023-03-31T04:48:13.637Z,15.93
2023-03-31T04:53:18.532Z,17.42
2023-03-31T04:58:22.920Z,18.08
2023-03-31T05:03:28.862Z,17.88
2023-03-31T05:08:34.446Z,19.15
2023-03-31T05:13:38.730Z,16.30
2023-03-31T05:18:44.949Z,15.82
2023-03-31T05:23:50.569Z,16.48
2023-03-31T05:28:54.929Z,17.83
2023-03-31T05:34:00.748Z,16.30
2023-03-31T05:39:05.647Z,16.98
2023-03-31T05:44:10.281Z,16.50
2023-03-31T05:49:17.409Z,14.82
2023-03-31T05:54:22.908Z,13.15
2023-03-31T05:59:27.602Z,13.10
2023-03-31T06:04:33.726Z,12.43
2023-03-31T06:09:38.580Z,12.82
2023-03-31T06:14:43.178Z,11.07
2023-03-31T06:19:50.065Z,11.75
2023-03-31T06:24:54.221Z,10.75
2023-03-31T06:29:58.766Z,10.10
2023-03-31T06:35:04.677Z,7.38
2023-03-31T06:40:10.562Z,7.78
2023-03-31T06:45:14.779Z,7.07
2023-03-31T06:50:20.513Z,8.52
2023-03-31T06:55:24.880Z,5.80
2023-03-31T07:00:29.279Z,6.05
2023-03-31T07:05:34.987Z,5.55
2023-03-31T07:10:39.536Z,5.95
2023-03-31T07:15:44.072Z,8.02
2023-03-31T07:20:51.767Z,5.40
2023-03-31T07:25:56.147Z,6.60
2023-03-31T07:31:00.615Z,4.57
2023-03-31T07:36:12.539Z,4.53
2023-03-31T07:41:20.172Z,4.90
2023-03-31T07:46:27.765Z,4.00
2023-03-31T07:51:34.278Z,7.35
2023-03-31T07:56:39.137Z,4.20
2023-03-31T08:01:43.544Z,4.55
2023-03-31T08:06:51.779Z,6.10
2023-03-31T08:11:56.201Z,4.53
2023-03-31T08:17:00.474Z,7.68
2023-03-31T08:22:06.329Z,4.57
2023-03-31T08:27:12.574Z,4.25
2023-03-31T08:32:16.895Z,3.55
2023-03-31T08:37:23.054Z,13.15
2023-03-31T08:42:36.685Z,5.10
2023-03-31T08:47:42.369Z,4.18
2023-03-31T08:52:53.610Z,4.03
2023-03-31T08:58:01.945Z,8.98
2023-03-31T09:03:15.059Z,5.53
2023-03-31T09:08:33.945Z,4.60
2023-03-31T09:13:53.687Z,4.63
2023-03-31T09:24:13.106Z,4.85
2023-03-31T09:29:24.817Z,3.85
2023-03-31T09:34:33.556Z,4.35
2023-03-31T09:39:39.845Z,3.83
2023-03-31T09:44:47.660Z,6.93
2023-03-31T09:49:54.028Z,4.68
2023-03-31T09:55:02.994Z,3.97
2023-03-31T10:00:16.825Z,4.78
2023-03-31T10:05:28.911Z,4.78
2023-03-31T10:10:35.257Z,2.78
2023-03-31T10:15:42.243Z,4.68
2023-03-31T10:20:51.890Z,3.30
2023-03-31T10:25:58.083Z,3.38
2023-03-31T10:31:03.786Z,3.65
2023-03-31T10:36:13.723Z,3.42
2023-03-31T10:41:23.469Z,3.78
2023-03-31T10:46:43.015Z,5.32
2023-03-31T10:57:01.746Z,4.43
2023-03-31T11:02:35.782Z,4.88
2023-03-31T11:07:52.370Z,4.20
2023-03-31T11:13:04.572Z,3.70
2023-03-31T11:18:35.849Z,5.43
2023-03-31T11:23:43.700Z,3.95
2023-03-31T11:29:19.541Z,3.20
2023-03-31T11:34:54.127Z,3.45
2023-03-31T11:40:09.325Z,4.15
2023-03-31T11:45:19.871Z,4.05
2023-03-31T11:50:27.967Z,3.10
2023-03-31T11:55:34.149Z,3.05
2023-03-31T12:00:43.614Z,3.10
2023-03-31T12:05:52.547Z,3.13
2023-03-31T12:11:04.051Z,3.20
2023-03-31T12:16:15.044Z,5.47
2023-03-31T12:21:19.795Z,4.28
2023-03-31T12:26:39.541Z,4.10
2023-03-31T12:31:47.524Z,4.00
2023-03-31T12:37:07.590Z,3.50
2023-03-31T12:42:46.589Z,2.97
2023-03-31T12:48:20.559Z,3.30
2023-03-31T12:53:36.554Z,2.90
2023-03-31T12:58:43.603Z,3.17
2023-03-31T13:03:52.624Z,3.95
2023-03-31T13:08:58.125Z,4.40
2023-03-31T13:14:04.650Z,3.30
2023-03-31T13:19:14.030Z,3.42
2023-03-31T13:24:23.239Z,3.53
2023-03-31T13:29:41.980Z,1.95
2023-03-31T13:34:53.706Z,1.77
2023-03-31T13:40:14.853Z,3.95
2023-03-31T13:45:29.516Z,3.10
2023-03-31T13:51:19.557Z,3.47
2023-03-31T13:56:45.778Z,2.97
2023-03-31T14:02:04.200Z,3.10
2023-03-31T14:07:15.997Z,2.58
2023-03-31T14:12:34.667Z,2.95
2023-03-31T14:17:43.454Z,2.60
2023-03-31T14:22:56.668Z,2.63
2023-03-31T14:28:13.903Z,2.40
2023-03-31T14:33:34.441Z,7.85
2023-03-31T14:38:40.740Z,4.57
2023-03-31T14:43:49.961Z,4.57
2023-03-31T14:48:54.303Z,6.38
2023-03-31T14:54:00.526Z,5.95
2023-03-31T14:59:07.598Z,6.25
2023-03-31T15:04:15.217Z,7.88
2023-03-31T15:09:26.112Z,6.15
2023-03-31T15:14:31.845Z,6.18
2023-03-31T15:19:37.124Z,5.53
2023-03-31T15:24:43.299Z,7.03
2023-03-31T15:29:50.605Z,5.50
2023-03-31T15:34:57.298Z,4.95
2023-03-31T15:40:09.519Z,5.90
2023-03-31T15:45:40.213Z,5.55
2023-03-31T15:50:45.685Z,5.63
2023-03-31T15:55:56.078Z,9.73
2023-03-31T16:01:06.609Z,7.13
2023-03-31T16:06:16.662Z,25.27
2023-03-31T16:16:31.071Z,17.15
2023-03-31T16:21:40.835Z,10.38
2023-03-31T16:26:46.867Z,10.25
2023-03-31T16:31:51.427Z,9.77
2023-03-31T16:36:56.031Z,14.15
2023-03-31T16:42:01.822Z,21.25
2023-03-31T16:47:06.362Z,15.65
2023-03-31T16:52:11.033Z,9.05
2023-03-31T16:57:16.952Z,13.60
2023-03-31T17:02:21.876Z,10.18
2023-03-31T17:07:27.157Z,11.52
2023-03-31T17:12:33.045Z,8.13
2023-03-31T17:17:37.569Z,12.30
2023-03-31T17:22:42.444Z,19.95
2023-03-31T17:27:48.438Z,30.65
2023-03-31T17:32:53.055Z,24.95
2023-03-31T17:37:57.549Z,22.63
2023-03-31T17:43:03.978Z,7.85
2023-03-31T17:48:10.210Z,7.45
2023-03-31T17:53:14.908Z,14.07
2023-03-31T17:58:22.347Z,9.23
2023-03-31T18:03:29.396Z,8.98
2023-03-31T18:08:34.860Z,11.60
2023-03-31T18:13:41.178Z,11.85
2023-03-31T18:18:45.752Z,12.80
2023-03-31T18:23:52.856Z,18.02
2023-03-31T18:28:59.205Z,11.50
2023-03-31T18:34:03.790Z,8.25
2023-03-31T18:39:08.244Z,11.57
2023-03-31T18:44:15.135Z,11.23
2023-03-31T18:49:20.502Z,12.13
2023-03-31T18:54:25.070Z,11.57
2023-03-31T18:59:30.838Z,8.27
2023-03-31T19:04:35.463Z,9.38
2023-03-31T19:09:40.010Z,10.88
2023-03-31T19:14:46.270Z,10.35
2023-03-31T19:19:52.737Z,10.88
2023-03-31T19:24:59.796Z,9.05
2023-03-31T19:30:07.025Z,25.45
2023-03-31T19:35:11.466Z,22.48
2023-03-31T19:40:16.332Z,32.75
2023-03-31T19:45:22.163Z,26.73
2023-03-31T19:50:26.411Z,22.17
2023-03-31T19:55:31.152Z,25.17
2023-03-31T20:00:37.683Z,19.75
2023-03-31T20:05:42.045Z,18.05
2023-03-31T20:10:46.973Z,18.50
2023-03-31T20:16:00.144Z,17.50
2023-03-31T20:21:07.141Z,17.90
2023-03-31T20:26:13.195Z,17.73
2023-03-31T20:31:21.323Z,24.77
2023-03-31T20:36:32.077Z,18.80
2023-03-31T20:41:38.694Z,19.55
2023-03-31T20:46:45.066Z,18.10
2023-03-31T20:51:50.316Z,16.60
2023-03-31T20:56:54.705Z,17.80
2023-03-31T21:02:00.350Z,15.43
2023-03-31T21:07:05.043Z,16.67
2023-03-31T21:12:09.385Z,14.43
2023-03-31T21:17:15.112Z,13.93
2023-03-31T21:22:19.501Z,9.63
2023-03-31T21:27:27.011Z,12.60
2023-03-31T21:32:33.207Z,12.90
2023-03-31T21:37:37.933Z,12.20
2023-03-31T21:42:42.264Z,13.38
2023-03-31T21:47:48.770Z,20.00
2023-03-31T21:52:52.963Z,15.27
2023-03-31T21:57:57.412Z,10.35
2023-03-31T22:03:22.355Z,7.25
2023-03-31T22:08:28.604Z,7.30
2023-03-31T22:13:32.957Z,11.52
2023-03-31T22:18:38.993Z,7.35
2023-03-31T22:23:43.288Z,5.80
2023-03-31T22:28:47.695Z,6.57
2023-03-31T22:33:53.781Z,8.52
2023-03-31T22:38:58.171Z,5.00
2023-03-31T22:44:02.356Z,4.18
2023-03-31T22:49:08.152Z,5.80
2023-03-31T22:54:15.076Z,4.88
2023-03-31T22:59:19.344Z,7.53
2023-03-31T23:04:25.112Z,5.93
2023-03-31T23:09:29.683Z,4.93
2023-03-31T23:14:33.859Z,6.75
2023-03-31T23:19:39.933Z,4.05
2023-03-31T23:24:44.317Z,4.85
2023-03-31T23:29:49.291Z,6.03
2023-03-31T23:34:54.974Z,5.55
2023-03-31T23:39:59.350Z,4.78
2023-03-31T23:45:03.464Z,4.32
2023-03-31T23:50:10.495Z,4.78
2023-03-31T23:55:15.122Z,4.35
